Kitadaito Airport

Current Flights

Departures
Number Departure To Airline
 RAC848 15:35  Naha  Ryukyu Air Commuter
Arrivals
Number Arrival From Airline
 RAC847 14:15 +791  Naha  Ryukyu Air Commuter
 RAC835 15:05  Minamidaito  Ryukyu Air Commuter
Info
Name: Kitadaito Airport
Identifier:  KTD/RORK
Local Time:  21. May 03:25
City
Kitadaito
  Japan

Flights per Day
1 flights
Distance: 174km (108mi)
Punctuality
90% (0 flights per day delayed)
Delay Average: 12 minutes
Current Weather
 25 C (Humidity: 94%)
  8kt (14km/h / 9mph) from 300°
  Few clouds at 600 feet (182 meter)
  Scattered clouds at 800 feet (243 meter)
  Broken clouds at 1,800 feet (548 meter)
  9km (6 mi.)
 METAR RORK 201800Z AUTO 30008KT 9999 FEW006 SCT008 BKN018 25/24 Q1003

Current Delays

Departures
N/A
Arrivals
N/A

Destinations

Top Destinations
Airport Flights
per week
Seats
per week
  Minamidaito (MMD) <1 7 0 1

Airlines & Planes

Top Airlines
Airline Flights
per Day
Seats
per Day
  Ryukyu Air Commuter <1 3
Top Plane Types
Manufacturer Model Flights Seats
Bombardier Dash 8-400 0.1/day 3/day 3.3333333333333335